Time;durP1;ratioP1;P1;durP2;ratioP2;P2;SDS_P1;SDS_P2;PMS_P1;PMS_P2;Temp;Humidity;BMP_temperature;BMP_pressure;BME280_temperature;BME280_humidity;BME280_pressure;Samples;Min_cycle;Max_cycle;Signal;HPM_P1;HPM_P2
2022/04/22 00:01:07;;;;;;;12.10;8.07;;;8.70;60.20;;;;;;5070799;28;20203;-76
2022/04/22 00:03:34;;;;;;;8.77;7.88;;;8.70;60.80;;;;;;5067799;28;20206;-75
2022/04/22 00:06:02;;;;;;;9.73;8.73;;;8.70;60.80;;;;;;5065343;28;20212;-76
2022/04/22 00:08:29;;;;;;;9.55;8.55;;;8.70;62.00;;;;;;5068869;28;20218;-76
2022/04/22 00:13:42;;;;;;;12.15;8.90;;;8.80;61.80;;;;;;5049279;28;20195;-75
2022/04/22 00:16:34;;;;;;;12.95;9.10;;;8.70;61.60;;;;;;5039771;28;20202;-74
2022/04/22 00:19:01;;;;;;;12.73;9.05;;;8.70;62.90;;;;;;5063274;28;20207;-75
2022/04/22 00:21:29;;;;;;;11.32;9.13;;;8.70;62.60;;;;;;5061379;28;20226;-77
2022/04/22 00:23:56;;;;;;;11.35;8.93;;;8.70;62.60;;;;;;5056085;28;20230;-75
2022/04/22 00:26:23;;;;;;;10.15;9.13;;;8.70;63.00;;;;;;5056725;28;20207;-77
2022/04/22 00:28:51;;;;;;;10.45;9.35;;;8.70;63.50;;;;;;5053149;28;20245;-76
2022/04/22 00:31:18;;;;;;;11.38;10.15;;;8.70;63.90;;;;;;5058377;28;20210;-77
2022/04/22 00:33:45;;;;;;;10.80;9.68;;;8.60;64.00;;;;;;5062742;28;20238;-76
2022/04/22 00:36:13;;;;;;;12.23;10.20;;;8.60;64.90;;;;;;5067923;28;20237;-74
2022/04/22 00:38:41;;;;;;;13.68;10.55;;;8.70;65.10;;;;;;5051985;28;20298;-76
2022/04/22 00:41:08;;;;;;;12.65;10.10;;;8.60;65.00;;;;;;5056323;28;20203;-79
2022/04/22 00:43:42;;;;;;;17.45;11.77;;;8.70;65.20;;;;;;5053132;28;20231;-77
2022/04/22 00:46:11;;;;;;;11.98;10.05;;;8.70;65.60;;;;;;5034357;28;20715;-79
2022/04/22 00:48:38;;;;;;;20.80;11.27;;;8.80;65.20;;;;;;5036223;28;20235;-78
2022/04/22 00:51:16;;;;;;;14.88;10.68;;;8.80;65.50;;;;;;5033899;28;20208;-76
2022/04/22 00:53:47;;;;;;;15.27;10.63;;;8.80;65.60;;;;;;5053412;28;20266;-76
2022/04/22 00:56:14;;;;;;;17.35;12.00;;;8.80;65.50;;;;;;5070631;28;20574;-74
2022/04/22 00:58:43;;;;;;;17.20;12.10;;;8.80;66.10;;;;;;5071581;28;20213;-74
2022/04/22 01:01:12;;;;;;;14.38;11.38;;;8.80;66.10;;;;;;5069756;28;20202;-74
2022/04/22 01:03:39;;;;;;;16.55;12.07;;;8.80;66.30;;;;;;5062889;28;20221;-75
2022/04/22 01:11:45;;;;;;;15.57;11.65;;;8.80;66.60;;;;;;5056392;28;20230;-74
2022/04/22 01:14:12;;;;;;;16.90;12.20;;;8.80;67.30;;;;;;5064028;28;20340;-75
2022/04/22 01:16:40;;;;;;;17.30;12.35;;;8.80;67.50;;;;;;5070170;28;20210;-75
2022/04/22 01:19:07;;;;;;;16.17;11.40;;;8.70;67.50;;;;;;5068384;28;20690;-75
2022/04/22 01:21:35;;;;;;;17.85;12.75;;;8.70;67.40;;;;;;5062434;28;20234;-77
2022/04/22 01:24:02;;;;;;;17.40;12.90;;;8.70;67.70;;;;;;5060462;28;20206;-77
2022/04/22 01:26:29;;;;;;;17.10;12.77;;;8.60;68.10;;;;;;5062848;28;20237;-76
2022/04/22 01:28:56;;;;;;;16.30;13.43;;;8.60;68.90;;;;;;5075721;28;20210;-75
2022/04/22 01:31:23;;;;;;;15.73;12.75;;;8.70;68.90;;;;;;5064966;28;20321;-76
2022/04/22 01:33:51;;;;;;;17.65;13.30;;;8.60;68.90;;;;;;5062691;28;20317;-78
2022/04/22 01:36:17;;;;;;;19.20;13.32;;;8.70;69.00;;;;;;5057940;28;20659;-75
2022/04/22 01:38:46;;;;;;;17.58;12.32;;;8.60;69.60;;;;;;5052697;28;20695;-76
2022/04/22 01:41:13;;;;;;;22.83;13.90;;;8.60;69.70;;;;;;5055754;28;20202;-76
2022/04/22 01:43:40;;;;;;;17.70;12.48;;;8.60;70.20;;;;;;5062565;28;20219;-79
2022/04/22 01:46:06;;;;;;;22.48;13.85;;;8.60;70.30;;;;;;5057303;28;20200;-75
2022/04/22 01:48:33;;;;;;;17.88;14.27;;;8.60;70.30;;;;;;5040433;28;20261;-76
2022/04/22 01:51:00;;;;;;;19.42;13.38;;;8.60;70.00;;;;;;5045918;28;20207;-75
2022/04/22 01:53:27;;;;;;;18.50;14.25;;;8.60;70.50;;;;;;5051061;28;20203;-76
2022/04/22 01:55:56;;;;;;;21.08;13.25;;;8.60;70.70;;;;;;5046887;28;20609;-78
2022/04/22 01:58:22;;;;;;;18.38;13.48;;;8.60;70.70;;;;;;5047601;28;20211;-78
2022/04/22 02:00:49;;;;;;;23.63;14.48;;;8.60;70.80;;;;;;5055773;28;20275;-77
2022/04/22 02:03:16;;;;;;;20.75;13.55;;;8.50;71.40;;;;;;5056926;28;20828;-75
2022/04/22 02:05:43;;;;;;;19.75;13.82;;;8.50;71.60;;;;;;5073578;28;20302;-75
2022/04/22 02:08:10;;;;;;;24.30;13.60;;;8.50;71.60;;;;;;5062089;28;20222;-77
2022/04/22 02:10:37;;;;;;;18.42;13.93;;;8.50;71.60;;;;;;5062134;28;20555;-77
2022/04/22 02:13:06;;;;;;;19.90;14.23;;;8.40;71.60;;;;;;5047824;28;20276;-76
2022/04/22 02:15:33;;;;;;;19.27;13.57;;;8.40;72.10;;;;;;5057959;28;20233;-75
2022/04/22 02:18:00;;;;;;;18.70;14.13;;;8.30;72.40;;;;;;5055696;28;20570;-76
2022/04/22 02:20:27;;;;;;;18.15;14.80;;;8.30;73.20;;;;;;5053618;28;20234;-76
2022/04/22 02:22:54;;;;;;;19.42;13.73;;;8.40;72.90;;;;;;5056895;28;20250;-76
2022/04/22 02:25:21;;;;;;;19.83;14.73;;;8.40;72.40;;;;;;5050181;28;20227;-75
2022/04/22 02:30:34;;;;;;;23.88;16.13;;;8.30;72.80;;;;;;5049374;28;20265;-76
2022/04/22 02:33:01;;;;;;;20.95;15.23;;;8.30;73.90;;;;;;5062060;28;20238;-76
2022/04/22 02:35:28;;;;;;;19.92;14.80;;;8.30;73.70;;;;;;5064240;28;20608;-75
2022/04/22 02:37:55;;;;;;;21.08;15.75;;;8.30;73.60;;;;;;5056563;28;20212;-75
2022/04/22 02:45:53;;;;;;;19.00;14.15;;;8.20;73.70;;;;;;5063174;28;20186;-76
2022/04/22 02:48:21;;;;;;;19.55;15.05;;;8.20;73.80;;;;;;5061167;28;20216;-75
2022/04/22 02:50:48;;;;;;;24.70;16.25;;;8.20;74.50;;;;;;5060121;28;20217;-75
2022/04/22 02:53:14;;;;;;;21.50;15.02;;;8.10;74.70;;;;;;5055280;28;20286;-75
2022/04/22 02:55:48;;;;;;;23.90;16.30;;;8.10;75.10;;;;;;5042381;28;20245;-79
2022/04/22 02:58:15;;;;;;;22.63;16.20;;;8.20;74.90;;;;;;5048236;28;20207;-75
2022/04/22 03:00:42;;;;;;;21.65;16.70;;;8.10;75.50;;;;;;5042297;28;20211;-76
2022/04/22 03:03:10;;;;;;;22.25;16.48;;;8.10;76.20;;;;;;5065264;28;20233;-75
2022/04/22 03:05:37;;;;;;;23.35;16.17;;;8.10;75.70;;;;;;5062375;28;20214;-75
2022/04/22 03:08:05;;;;;;;23.55;16.05;;;8.10;75.50;;;;;;5047213;28;20202;-76
2022/04/22 03:10:32;;;;;;;24.23;16.30;;;8.10;75.60;;;;;;5061350;28;20206;-76
2022/04/22 03:12:59;;;;;;;21.13;15.63;;;8.00;75.50;;;;;;5067940;28;20210;-76
2022/04/22 03:15:26;;;;;;;24.88;16.08;;;8.00;76.50;;;;;;5054386;28;20747;-76
2022/04/22 03:17:53;;;;;;;24.30;17.42;;;8.00;76.50;;;;;;5042302;28;20215;-77
2022/04/22 03:20:22;;;;;;;24.90;17.33;;;8.00;75.50;;;;;;5043117;28;20207;-75
2022/04/22 03:22:48;;;;;;;22.90;16.52;;;8.00;76.20;;;;;;5041695;28;20229;-77
2022/04/22 03:25:16;;;;;;;23.92;16.45;;;7.90;76.30;;;;;;5059207;28;20210;-76
2022/04/22 03:27:42;;;;;;;21.63;14.95;;;7.80;77.00;;;;;;5047162;28;20207;-76
2022/04/22 03:30:10;;;;;;;22.48;15.68;;;7.60;78.90;;;;;;5058286;28;20218;-77
2022/04/22 03:32:37;;;;;;;24.60;16.20;;;7.50;79.60;;;;;;5056608;28;20223;-76
2022/04/22 03:35:05;;;;;;;23.63;15.38;;;7.40;81.60;;;;;;5044777;28;20198;-77
2022/04/22 03:37:33;;;;;;;21.73;16.10;;;7.40;82.60;;;;;;5043093;28;20234;-76
2022/04/22 03:40:00;;;;;;;22.60;15.18;;;7.30;83.10;;;;;;5055183;28;20638;-77
2022/04/22 03:42:29;;;;;;;24.60;17.10;;;7.20;84.50;;;;;;5053275;28;20667;-77
2022/04/22 03:44:56;;;;;;;25.08;17.45;;;7.10;85.10;;;;;;5048374;28;20210;-76
2022/04/22 03:47:23;;;;;;;26.95;17.40;;;7.10;87.30;;;;;;5052530;28;20195;-76
2022/04/22 03:49:50;;;;;;;24.23;17.35;;;7.00;87.30;;;;;;5068913;28;20206;-77
2022/04/22 03:52:17;;;;;;;25.75;16.60;;;7.00;88.50;;;;;;5063169;28;20234;-75
2022/04/22 03:54:45;;;;;;;22.75;15.93;;;6.90;89.60;;;;;;5066284;28;20198;-75
2022/04/22 03:59:57;;;;;;;25.30;18.13;;;6.90;90.50;;;;;;5056077;28;20206;-75
2022/04/22 04:02:27;;;;;;;27.20;17.33;;;6.80;91.00;;;;;;5049015;28;20223;-76
2022/04/22 04:05:03;;;;;;;25.70;17.98;;;6.80;91.50;;;;;;5044858;28;20221;-76
2022/04/22 04:07:30;;;;;;;24.73;17.65;;;6.90;92.20;;;;;;5057717;28;20262;-75
2022/04/22 04:18:15;;;;;;;28.40;19.15;;;6.70;92.70;;;;;;5033368;28;20195;-75
2022/04/22 04:23:30;;;;;;;28.40;18.30;;;6.70;93.90;;;;;;5060595;28;20242;-75
2022/04/22 04:25:59;;;;;;;29.73;19.38;;;6.70;94.20;;;;;;5055484;28;20211;-76
2022/04/22 04:28:27;;;;;;;28.65;19.48;;;6.70;94.20;;;;;;5057489;28;20217;-75
2022/04/22 04:30:54;;;;;;;25.95;17.95;;;6.70;94.60;;;;;;5069270;28;20206;-76
2022/04/22 04:33:24;;;;;;;29.55;19.58;;;6.80;94.60;;;;;;5060613;28;20227;-77
2022/04/22 04:35:51;;;;;;;31.00;20.10;;;6.70;94.40;;;;;;5047157;28;20207;-76
2022/04/22 04:38:20;;;;;;;28.80;18.80;;;6.70;94.80;;;;;;5055611;28;20203;-75
2022/04/22 04:40:50;;;;;;;27.40;19.42;;;6.80;94.70;;;;;;5066505;28;20211;-80
2022/04/22 04:43:19;;;;;;;26.95;18.45;;;6.80;94.60;;;;;;5040602;28;20234;-76
2022/04/22 04:45:46;;;;;;;32.28;19.92;;;6.80;94.50;;;;;;5066031;28;20203;-77
2022/04/22 04:48:13;;;;;;;27.38;19.92;;;6.90;94.10;;;;;;5070454;28;20221;-77
2022/04/22 04:50:41;;;;;;;31.70;20.83;;;6.90;93.90;;;;;;5063594;28;20238;-77
2022/04/22 04:53:08;;;;;;;30.83;20.80;;;6.90;94.10;;;;;;5052229;28;20223;-75
2022/04/22 04:55:35;;;;;;;29.17;19.45;;;7.10;93.70;;;;;;5053263;28;20215;-76
2022/04/22 04:58:02;;;;;;;32.30;19.73;;;7.10;92.60;;;;;;5050208;28;20203;-75
2022/04/22 05:00:30;;;;;;;29.77;20.65;;;7.30;91.80;;;;;;5047064;28;20210;-79
2022/04/22 05:02:57;;;;;;;28.48;17.88;;;7.40;90.70;;;;;;5047107;28;20300;-75
2022/04/22 05:05:24;;;;;;;28.75;19.42;;;7.50;89.70;;;;;;5049765;28;20235;-74
2022/04/22 05:07:55;;;;;;;24.88;18.25;;;7.60;87.90;;;;;;5064329;28;20210;-75
2022/04/22 05:10:22;;;;;;;29.67;19.35;;;7.60;86.40;;;;;;5058435;28;20222;-77
2022/04/22 05:12:50;;;;;;;24.08;18.30;;;7.70;85.40;;;;;;5053572;28;20604;-76
2022/04/22 05:15:18;;;;;;;28.23;18.88;;;7.80;83.40;;;;;;5058971;28;20271;-75
2022/04/22 05:18:11;;;;;;;29.90;19.58;;;7.80;82.90;;;;;;5059750;28;20242;-76
2022/04/22 05:20:41;;;;;;;27.08;18.45;;;8.00;81.00;;;;;;5050351;28;20211;-75
2022/04/22 05:23:08;;;;;;;28.02;19.13;;;8.10;79.90;;;;;;5056151;28;20224;-76
2022/04/22 05:25:35;;;;;;;25.92;19.10;;;8.30;78.70;;;;;;5069578;28;20206;-76
2022/04/22 05:28:11;;;;;;;27.83;18.73;;;8.30;76.70;;;;;;5060191;28;20206;-76
2022/04/22 05:33:33;;;;;;;27.83;19.25;;;8.70;74.60;;;;;;5034882;28;20199;-76
2022/04/22 05:36:00;;;;;;;25.30;18.08;;;8.70;71.90;;;;;;5064944;28;20213;-77
2022/04/22 05:38:27;;;;;;;26.00;17.38;;;8.80;71.80;;;;;;5059447;28;20214;-78
2022/04/22 05:40:53;;;;;;;29.95;18.05;;;8.70;72.90;;;;;;5068100;28;20247;-78
2022/04/22 05:43:20;;;;;;;24.35;17.27;;;8.90;71.70;;;;;;5060538;28;20241;-75
2022/04/22 05:45:47;;;;;;;25.65;17.85;;;9.10;70.10;;;;;;5056190;28;20200;-76
2022/04/22 05:48:15;;;;;;;20.40;15.95;;;9.50;68.10;;;;;;5057194;28;20202;-79
2022/04/22 05:50:43;;;;;;;22.60;16.75;;;9.90;65.30;;;;;;5056827;28;20209;-76
2022/04/22 05:53:10;;;;;;;23.15;16.73;;;10.10;61.20;;;;;;5054181;28;20253;-76
2022/04/22 05:55:37;;;;;;;28.90;17.38;;;10.20;60.50;;;;;;5059779;28;20267;-77
2022/04/22 05:58:04;;;;;;;20.25;16.80;;;10.20;58.90;;;;;;5046927;28;20286;-77
2022/04/22 06:00:32;;;;;;;30.63;17.63;;;10.30;59.00;;;;;;5048548;28;20238;-76
2022/04/22 06:03:00;;;;;;;23.48;16.65;;;10.40;59.00;;;;;;5046492;28;20254;-76
2022/04/22 06:05:27;;;;;;;20.67;15.60;;;10.20;58.90;;;;;;5049258;28;20234;-78
2022/04/22 06:10:42;;;;;;;20.83;15.95;;;10.40;59.10;;;;;;5046324;28;20265;-76
2022/04/22 06:13:09;;;;;;;24.45;16.83;;;10.50;58.60;;;;;;5047012;28;20254;-76
2022/04/22 06:15:36;;;;;;;24.65;16.92;;;10.30;59.00;;;;;;5048227;28;20203;-75
2022/04/22 06:18:03;;;;;;;27.88;18.25;;;9.90;61.40;;;;;;5058742;28;20204;-76
2022/04/22 06:20:30;;;;;;;22.92;16.40;;;9.90;61.30;;;;;;5047610;28;20234;-78
2022/04/22 06:23:00;;;;;;;24.15;17.83;;;9.90;61.50;;;;;;5046510;28;20291;-77
2022/04/22 06:25:27;;;;;;;23.17;16.80;;;10.00;60.10;;;;;;5042795;28;20305;-76
2022/04/22 06:27:55;;;;;;;24.08;16.67;;;10.00;59.70;;;;;;5042961;28;20218;-76
2022/04/22 06:30:23;;;;;;;24.55;17.77;;;9.80;61.40;;;;;;5046146;28;20212;-76
2022/04/22 06:32:52;;;;;;;23.13;16.90;;;9.80;61.20;;;;;;5036963;28;20227;-78
2022/04/22 06:35:21;;;;;;;23.30;16.63;;;9.90;61.40;;;;;;5029193;28;20203;-76
2022/04/22 06:37:51;;;;;;;23.65;17.58;;;9.90;61.50;;;;;;5040210;28;20217;-77
2022/04/22 06:45:52;;;;;;;24.38;17.83;;;9.90;63.60;;;;;;5029123;28;20595;-77
2022/04/22 06:48:21;;;;;;;25.92;17.95;;;9.70;62.70;;;;;;5039194;28;20206;-77
2022/04/22 06:50:49;;;;;;;30.83;18.65;;;9.80;62.40;;;;;;5042461;28;20274;-77
2022/04/22 06:53:17;;;;;;;25.63;18.90;;;10.10;60.40;;;;;;5067208;28;20461;-75
2022/04/22 06:55:47;;;;;;;26.05;19.58;;;10.00;59.30;;;;;;5070501;28;20639;-77
2022/04/22 06:58:15;;;;;;;26.20;18.45;;;9.70;60.10;;;;;;5063431;28;20206;-76
2022/04/22 07:00:44;;;;;;;26.75;18.08;;;9.80;60.30;;;;;;5059027;28;20203;-76
2022/04/22 07:03:12;;;;;;;27.83;18.77;;;9.90;59.60;;;;;;5059094;28;20787;-77
2022/04/22 07:05:40;;;;;;;26.05;18.13;;;10.10;58.10;;;;;;5048207;28;20264;-77
2022/04/22 07:08:13;;;;;;;24.52;18.45;;;10.20;55.90;;;;;;5049917;28;20470;-77
2022/04/22 07:10:41;;;;;;;25.90;18.75;;;10.10;56.20;;;;;;5049911;28;20225;-77
2022/04/22 07:13:11;;;;;;;26.65;17.52;;;10.00;56.10;;;;;;5050298;28;20298;-75
2022/04/22 07:15:39;;;;;;;25.23;18.77;;;10.00;56.40;;;;;;5056377;28;20236;-77
2022/04/22 07:18:07;;;;;;;23.38;16.58;;;10.10;55.60;;;;;;5045417;28;20215;-75
2022/04/22 07:20:34;;;;;;;24.55;17.02;;;10.00;56.40;;;;;;5059429;28;20210;-76
2022/04/22 07:23:02;;;;;;;23.27;17.98;;;10.10;55.90;;;;;;5061560;28;20258;-76
2022/04/22 07:25:29;;;;;;;24.90;18.05;;;10.00;56.50;;;;;;5046197;28;20245;-78
2022/04/22 07:27:58;;;;;;;24.70;16.50;;;10.20;55.90;;;;;;5046093;28;20215;-78
2022/04/22 07:30:27;;;;;;;24.75;18.00;;;10.20;55.20;;;;;;5061977;28;20217;-76
2022/04/22 07:32:54;;;;;;;25.45;18.13;;;10.30;54.60;;;;;;5067008;28;20242;-76
2022/04/22 07:35:22;;;;;;;27.60;19.33;;;10.30;54.30;;;;;;5053487;28;20211;-78
2022/04/22 07:37:51;;;;;;;28.77;19.00;;;10.10;54.90;;;;;;5047491;28;20226;-79
2022/04/22 07:40:20;;;;;;;25.27;17.92;;;10.00;55.40;;;;;;5031811;28;20276;-78
2022/04/22 07:48:20;;;;;;;23.70;17.25;;;10.40;53.80;;;;;;5049778;28;20294;-75
2022/04/22 07:50:48;;;;;;;22.33;17.40;;;10.70;53.10;;;;;;5061888;28;20202;-76
2022/04/22 07:53:15;;;;;;;24.25;17.63;;;10.80;51.00;;;;;;5041445;28;20231;-78
2022/04/22 07:55:42;;;;;;;23.23;18.00;;;10.80;51.60;;;;;;5044362;28;20207;-75
2022/04/22 07:58:10;;;;;;;22.75;17.52;;;10.90;52.00;;;;;;5044489;28;20302;-77
2022/04/22 08:00:40;;;;;;;28.45;16.45;;;11.00;51.30;;;;;;5054983;28;20222;-76
2022/04/22 08:03:07;;;;;;;26.73;18.67;;;10.90;50.60;;;;;;5054137;28;20223;-77
2022/04/22 08:05:34;;;;;;;23.02;17.30;;;11.30;50.50;;;;;;5057423;28;20257;-79
2022/04/22 08:08:01;;;;;;;23.50;18.38;;;11.80;49.00;;;;;;5050687;28;20210;-77
2022/04/22 08:10:28;;;;;;;22.73;16.75;;;11.40;49.40;;;;;;5044893;28;20214;-77
2022/04/22 08:12:55;;;;;;;19.35;15.10;;;11.30;49.60;;;;;;5046656;28;20289;-76
2022/04/22 08:15:22;;;;;;;21.67;17.05;;;11.40;49.60;;;;;;5041770;28;20298;-76
2022/04/22 08:17:51;;;;;;;23.17;17.00;;;11.70;48.50;;;;;;5040936;28;20242;-77
2022/04/22 08:20:18;;;;;;;21.38;17.63;;;11.80;47.50;;;;;;5048202;28;20206;-77
2022/04/22 08:22:45;;;;;;;22.65;16.50;;;11.80;47.70;;;;;;5049878;28;20253;-76
2022/04/22 08:25:12;;;;;;;22.35;17.08;;;11.90;47.70;;;;;;5046059;28;20296;-76
2022/04/22 08:27:40;;;;;;;21.58;16.23;;;11.70;47.90;;;;;;5057722;28;20237;-76
2022/04/22 08:30:09;;;;;;;21.27;14.98;;;11.80;48.40;;;;;;5030703;28;20212;-79
2022/04/22 08:32:36;;;;;;;24.65;17.88;;;12.30;46.70;;;;;;5049504;28;20218;-77
2022/04/22 08:35:06;;;;;;;20.92;16.80;;;12.00;46.40;;;;;;5056212;28;20654;-77
2022/04/22 08:37:32;;;;;;;21.60;16.98;;;12.00;46.50;;;;;;5060418;28;20596;-76
2022/04/22 08:39:59;;;;;;;25.33;16.83;;;11.90;47.20;;;;;;5062667;28;20298;-78
2022/04/22 08:42:26;;;;;;;19.08;15.05;;;11.80;46.50;;;;;;5057928;28;20257;-76
2022/04/22 08:44:54;;;;;;;24.17;16.67;;;12.00;46.60;;;;;;5048661;28;20239;-76
2022/04/22 08:50:16;;;;;;;19.52;14.82;;;12.10;46.40;;;;;;5035688;28;20194;-78
2022/04/22 08:52:44;;;;;;;20.75;15.60;;;12.10;45.90;;;;;;5051139;28;20226;-78
2022/04/22 08:55:13;;;;;;;20.02;15.27;;;12.50;45.80;;;;;;5044984;28;20225;-76
2022/04/22 08:57:42;;;;;;;22.15;15.85;;;12.50;45.00;;;;;;5049104;28;20210;-76
2022/04/22 09:00:10;;;;;;;21.45;15.88;;;12.60;45.00;;;;;;5052878;28;20207;-78
2022/04/22 09:02:38;;;;;;;18.90;15.93;;;12.70;44.50;;;;;;5054194;28;20729;-77
2022/04/22 09:05:08;;;;;;;20.77;14.40;;;12.80;44.00;;;;;;5057241;28;20223;-75
2022/04/22 09:07:41;;;;;;;20.42;15.15;;;13.00;43.50;;;;;;5060301;28;20278;-75
2022/04/22 09:10:08;;;;;;;17.92;15.15;;;13.00;42.30;;;;;;5055935;28;20209;-75
2022/04/22 09:12:36;;;;;;;22.83;16.23;;;13.10;42.40;;;;;;5056294;28;20314;-75
2022/04/22 09:15:03;;;;;;;19.30;15.65;;;12.90;43.10;;;;;;5040684;28;20274;-76
2022/04/22 09:17:33;;;;;;;18.48;15.55;;;13.00;42.30;;;;;;5047888;28;20301;-76
2022/04/22 09:20:02;;;;;;;22.23;15.80;;;13.00;42.30;;;;;;5051140;28;20562;-76
2022/04/22 09:22:34;;;;;;;19.83;15.52;;;13.20;42.50;;;;;;5060057;28;20249;-75
2022/04/22 09:25:04;;;;;;;19.90;15.32;;;13.30;42.60;;;;;;5056112;28;20221;-78
2022/04/22 09:27:35;;;;;;;19.00;14.10;;;13.70;41.60;;;;;;5057965;28;20207;-78
2022/04/22 09:30:04;;;;;;;17.00;15.00;;;13.80;40.70;;;;;;5057554;28;20428;-78
2022/04/22 09:32:33;;;;;;;19.52;14.38;;;13.90;40.10;;;;;;5055882;28;20477;-78
2022/04/22 09:35:09;;;;;;;17.47;14.17;;;13.70;40.80;;;;;;5056317;28;20289;-78
2022/04/22 09:43:23;;;;;;;17.40;13.80;;;14.30;40.50;;;;;;5055560;28;20526;-77
2022/04/22 09:45:52;;;;;;;17.08;14.48;;;13.80;39.70;;;;;;5058557;28;20489;-78
2022/04/22 09:48:20;;;;;;;16.25;14.50;;;13.60;40.40;;;;;;5069947;28;20229;-77
2022/04/22 09:50:52;;;;;;;14.93;13.40;;;13.90;40.00;;;;;;5073558;28;20211;-77
2022/04/22 09:53:32;;;;;;;19.33;13.77;;;13.90;39.30;;;;;;5077847;28;20465;-78
2022/04/22 09:56:06;;;;;;;19.33;14.55;;;14.00;39.70;;;;;;5074636;28;20237;-77
2022/04/22 09:58:33;;;;;;;24.65;15.82;;;14.30;39.50;;;;;;5074388;28;20220;-78
2022/04/22 10:01:03;;;;;;;17.73;14.40;;;14.30;38.70;;;;;;5074557;28;20215;-77
2022/04/22 10:03:31;;;;;;;15.53;13.80;;;14.30;38.50;;;;;;5067816;28;20206;-78
2022/04/22 10:05:58;;;;;;;19.37;13.90;;;14.50;38.90;;;;;;5069792;28;20487;-77
2022/04/22 10:08:28;;;;;;;15.73;13.00;;;14.90;38.10;;;;;;5072409;28;20419;-77
2022/04/22 10:10:58;;;;;;;16.00;13.53;;;15.00;37.30;;;;;;5066573;28;20457;-78
2022/04/22 10:13:35;;;;;;;15.23;13.03;;;14.60;37.80;;;;;;5058975;28;20539;-78
2022/04/22 10:16:02;;;;;;;17.43;13.13;;;14.60;38.20;;;;;;5056408;28;20452;-78
2022/04/22 10:18:30;;;;;;;16.15;14.00;;;14.80;37.00;;;;;;5054811;28;20464;-78
2022/04/22 10:20:58;;;;;;;18.08;13.48;;;14.70;37.00;;;;;;5056463;28;20206;-77
2022/04/22 10:23:26;;;;;;;16.60;13.23;;;14.60;38.00;;;;;;5054763;28;20548;-78
2022/04/22 10:25:53;;;;;;;14.60;13.03;;;14.80;37.50;;;;;;5056693;28;20558;-76
2022/04/22 10:28:21;;;;;;;14.57;13.00;;;15.10;36.40;;;;;;5062130;28;20431;-76
2022/04/22 10:30:52;;;;;;;14.00;12.60;;;15.00;36.10;;;;;;5069568;28;20512;-77
2022/04/22 10:33:19;;;;;;;13.90;12.03;;;15.10;36.60;;;;;;5057123;28;20492;-76
2022/04/22 10:35:47;;;;;;;14.80;13.20;;;15.00;36.90;;;;;;5056026;28;20464;-75
2022/04/22 10:38:31;;;;;;;15.60;13.17;;;15.30;36.10;;;;;;5056011;28;20465;-76
2022/04/22 10:41:02;;;;;;;13.80;11.80;;;15.20;35.80;;;;;;5056126;28;20464;-75
2022/04/22 10:43:31;;;;;;;14.80;13.30;;;15.30;35.30;;;;;;5056027;28;20919;-75
2022/04/22 10:49:13;;;;;;;14.60;12.60;;;15.40;34.50;;;;;;5061335;28;20403;-77
2022/04/22 10:52:00;;;;;;;17.80;12.87;;;15.50;35.40;;;;;;5059417;28;20580;-74
2022/04/22 10:54:58;;;;;;;14.90;12.30;;;15.90;35.00;;;;;;5063352;28;20483;-76
2022/04/22 10:57:27;;;;;;;14.23;12.83;;;16.00;35.10;;;;;;5048191;28;20483;-75
2022/04/22 11:00:04;;;;;;;13.13;11.80;;;16.00;35.10;;;;;;5047837;28;20465;-77
2022/04/22 11:02:34;;;;;;;13.00;11.67;;;16.00;34.90;;;;;;5061171;28;20468;-76
2022/04/22 11:05:36;;;;;;;14.00;10.87;;;16.30;33.00;;;;;;5059134;28;20528;-77
2022/04/22 11:08:06;;;;;;;13.23;11.83;;;16.10;34.00;;;;;;5014862;28;20512;-75
2022/04/22 11:10:58;;;;;;;13.77;11.47;;;16.00;33.10;;;;;;5041284;28;20479;-76
2022/04/22 11:13:29;;;;;;;15.37;12.60;;;16.00;34.10;;;;;;5024185;28;20815;-77
2022/04/22 11:15:58;;;;;;;13.07;11.67;;;16.00;34.10;;;;;;5057776;28;20438;-76
2022/04/22 11:18:26;;;;;;;13.73;11.97;;;16.00;33.70;;;;;;5056967;28;20475;-76
2022/04/22 11:21:00;;;;;;;13.10;11.47;;;15.90;34.10;;;;;;5070838;28;20412;-76
2022/04/22 11:23:35;;;;;;;12.60;10.33;;;15.80;34.90;;;;;;5048085;28;20895;-76
2022/04/22 11:26:03;;;;;;;10.77;9.63;;;16.00;33.90;;;;;;5033786;28;20485;-77
2022/04/22 11:28:34;;;;;;;14.60;11.73;;;16.40;33.60;;;;;;5040840;28;20445;-77
2022/04/22 11:31:07;;;;;;;12.03;10.83;;;16.60;32.50;;;;;;5035220;28;20457;-77
2022/04/22 11:33:53;;;;;;;15.13;11.77;;;16.70;31.90;;;;;;5045770;28;20471;-76
2022/04/22 11:36:21;;;;;;;12.20;10.90;;;16.70;32.40;;;;;;5043916;28;20466;-77
2022/04/22 11:38:49;;;;;;;13.43;12.00;;;16.70;32.30;;;;;;5052786;28;20428;-75
2022/04/22 11:41:17;;;;;;;12.10;10.90;;;16.90;31.30;;;;;;5045526;28;20470;-76
2022/04/22 11:43:45;;;;;;;11.80;10.60;;;16.40;31.50;;;;;;5053218;28;20871;-76
2022/04/22 11:46:13;;;;;;;12.30;11.10;;;16.30;32.00;;;;;;5044770;28;20860;-76
2022/04/22 11:48:48;;;;;;;12.00;10.60;;;16.30;32.70;;;;;;5053129;28;20901;-75
2022/04/22 11:51:16;;;;;;;11.80;10.13;;;16.50;32.40;;;;;;5046299;28;20467;-78
2022/04/22 11:53:48;;;;;;;11.27;10.07;;;16.90;31.40;;;;;;5042140;28;20436;-76
2022/04/22 11:56:20;;;;;;;13.50;11.13;;;17.10;30.20;;;;;;5048909;28;20514;-76
2022/04/22 11:58:51;;;;;;;12.17;10.87;;;17.10;30.90;;;;;;5050423;28;20444;-79
2022/04/22 12:06:56;;;;;;;11.10;10.00;;;16.90;31.00;;;;;;5038668;28;20488;-80
2022/04/22 12:09:23;;;;;;;12.67;11.47;;;17.30;30.90;;;;;;5042758;28;20444;-79
2022/04/22 12:11:51;;;;;;;16.13;12.03;;;17.50;30.20;;;;;;5037575;28;20546;-78
2022/04/22 12:14:24;;;;;;;13.47;12.07;;;17.40;30.40;;;;;;5040468;28;20951;-78
2022/04/22 12:16:55;;;;;;;12.77;11.43;;;17.10;30.80;;;;;;5048040;28;20452;-75
2022/04/22 12:19:24;;;;;;;13.20;11.90;;;16.90;30.80;;;;;;5047470;28;20882;-78
2022/04/22 12:21:52;;;;;;;13.00;11.60;;;17.00;30.30;;;;;;5050709;28;21038;-77
2022/04/22 12:24:19;;;;;;;12.23;11.03;;;17.40;30.10;;;;;;5034731;28;20464;-76
2022/04/22 12:26:46;;;;;;;13.40;12.00;;;17.60;30.00;;;;;;5054296;28;20475;-75
2022/04/22 12:29:15;;;;;;;11.80;10.70;;;17.40;30.20;;;;;;5055004;28;20676;-77
2022/04/22 12:31:43;;;;;;;12.77;11.47;;;17.50;30.20;;;;;;5037783;28;20487;-76
2022/04/22 12:34:12;;;;;;;12.80;11.40;;;17.80;29.80;;;;;;5058347;28;20468;-78
2022/04/22 12:36:54;;;;;;;11.93;10.70;;;17.80;29.40;;;;;;5037615;28;20444;-79
2022/04/22 12:39:33;;;;;;;11.83;10.43;;;17.70;29.40;;;;;;5042706;28;20527;-77
2022/04/22 12:42:00;;;;;;;11.13;9.87;;;17.80;29.30;;;;;;5055768;28;20542;-78
2022/04/22 12:44:27;;;;;;;10.90;9.77;;;17.70;29.30;;;;;;5047513;28;20469;-77
2022/04/22 12:52:45;;;;;;;11.90;10.70;;;18.10;27.90;;;;;;5056236;28;20426;-78
2022/04/22 12:55:12;;;;;;;12.17;10.97;;;17.90;28.20;;;;;;5045549;28;20472;-76
2022/04/22 12:57:40;;;;;;;12.47;11.23;;;17.90;28.40;;;;;;5046500;28;20483;-78
2022/04/22 13:00:15;;;;;;;11.07;9.97;;;18.00;28.30;;;;;;5038041;28;20787;-78
2022/04/22 13:02:43;;;;;;;18.80;11.07;;;17.90;28.50;;;;;;5040358;28;20528;-77
2022/04/22 13:05:18;;;;;;;10.20;9.20;;;17.90;27.40;;;;;;5072916;28;20484;-76
2022/04/22 13:07:49;;;;;;;11.43;10.27;;;18.00;27.50;;;;;;5058509;28;20438;-75
2022/04/22 13:10:17;;;;;;;10.30;9.23;;;18.10;27.50;;;;;;5061092;28;20485;-75
2022/04/22 13:12:45;;;;;;;10.87;9.77;;;18.10;27.50;;;;;;5063361;28;20745;-75
2022/04/22 13:15:14;;;;;;;12.13;10.90;;;17.80;27.70;;;;;;5064997;28;20457;-76
2022/04/22 13:17:43;;;;;;;15.17;10.30;;;17.90;27.40;;;;;;5057811;28;20480;-76
2022/04/22 13:20:12;;;;;;;12.97;10.57;;;18.00;27.70;;;;;;5066174;28;20456;-78
2022/04/22 13:22:40;;;;;;;11.10;10.10;;;18.10;27.50;;;;;;5063794;28;20544;-78
2022/04/22 13:25:11;;;;;;;12.60;10.47;;;18.20;27.60;;;;;;5056232;28;20495;-77
2022/04/22 13:27:38;;;;;;;11.47;9.93;;;18.50;27.80;;;;;;5049311;28;20420;-80
2022/04/22 13:30:06;;;;;;;11.13;9.03;;;18.30;27.70;;;;;;5027666;28;20454;-78
2022/04/22 13:32:33;;;;;;;10.93;9.60;;;18.30;27.70;;;;;;5051017;28;20493;-78
2022/04/22 13:35:00;;;;;;;10.27;9.27;;;18.40;27.70;;;;;;5051659;28;20586;-78
2022/04/22 13:37:27;;;;;;;9.60;8.80;;;18.80;27.80;;;;;;5062758;28;20445;-77
2022/04/22 13:39:54;;;;;;;10.20;9.20;;;18.90;27.30;;;;;;5060555;28;20460;-77
2022/04/22 13:42:23;;;;;;;10.30;9.40;;;18.90;27.40;;;;;;5051948;28;20976;-77
2022/04/22 13:53:04;;;;;;;9.53;8.63;;;18.90;26.70;;;;;;5044059;28;21071;-76
2022/04/22 13:55:31;;;;;;;11.83;10.63;;;19.20;26.50;;;;;;5059219;28;20486;-78
2022/04/22 13:57:59;;;;;;;13.67;10.87;;;19.30;25.50;;;;;;5056818;28;20473;-76
2022/04/22 14:00:27;;;;;;;11.70;9.63;;;19.00;25.90;;;;;;5053377;28;20473;-77